sensor_id;sensor_type;location;lat;lon;timestamp;P1;durP1;ratioP1;P2;durP2;ratioP2
80621;SDS011;69980;51.914;7.526;2023-10-31T00:01:15;13.82;;;11.57;;
80621;SDS011;69980;51.914;7.526;2023-10-31T00:03:41;13.85;;;12.38;;
80621;SDS011;69980;51.914;7.526;2023-10-31T00:06:06;17.63;;;12.85;;
80621;SDS011;69980;51.914;7.526;2023-10-31T00:08:32;16.05;;;12.10;;
80621;SDS011;69980;51.914;7.526;2023-10-31T00:10:57;13.50;;;12.07;;
80621;SDS011;69980;51.914;7.526;2023-10-31T00:13:22;15.20;;;12.85;;
80621;SDS011;69980;51.914;7.526;2023-10-31T00:15:47;14.45;;;12.93;;
80621;SDS011;69980;51.914;7.526;2023-10-31T00:18:13;13.98;;;12.00;;
80621;SDS011;69980;51.914;7.526;2023-10-31T00:20:38;11.10;;;9.75;;
80621;SDS011;69980;51.914;7.526;2023-10-31T00:23:03;11.40;;;10.05;;
80621;SDS011;69980;51.914;7.526;2023-10-31T00:25:29;11.25;;;9.43;;
80621;SDS011;69980;51.914;7.526;2023-10-31T00:27:54;9.93;;;8.88;;
80621;SDS011;69980;51.914;7.526;2023-10-31T00:30:19;9.95;;;8.50;;
80621;SDS011;69980;51.914;7.526;2023-10-31T00:32:45;12.13;;;8.93;;
80621;SDS011;69980;51.914;7.526;2023-10-31T00:35:10;9.65;;;8.65;;
80621;SDS011;69980;51.914;7.526;2023-10-31T00:37:35;9.82;;;8.43;;
80621;SDS011;69980;51.914;7.526;2023-10-31T00:40:01;9.43;;;8.13;;
80621;SDS011;69980;51.914;7.526;2023-10-31T00:42:26;10.50;;;8.38;;
80621;SDS011;69980;51.914;7.526;2023-10-31T00:44:51;8.25;;;6.97;;
80621;SDS011;69980;51.914;7.526;2023-10-31T00:47:16;8.45;;;7.50;;
80621;SDS011;69980;51.914;7.526;2023-10-31T00:49:42;8.68;;;7.65;;
80621;SDS011;69980;51.914;7.526;2023-10-31T00:52:07;8.05;;;7.22;;
80621;SDS011;69980;51.914;7.526;2023-10-31T00:54:32;6.75;;;5.90;;
80621;SDS011;69980;51.914;7.526;2023-10-31T00:56:58;8.02;;;6.07;;
80621;SDS011;69980;51.914;7.526;2023-10-31T00:59:23;7.13;;;5.50;;
80621;SDS011;69980;51.914;7.526;2023-10-31T01:01:48;6.05;;;5.30;;
80621;SDS011;69980;51.914;7.526;2023-10-31T01:04:13;6.85;;;5.38;;
80621;SDS011;69980;51.914;7.526;2023-10-31T01:06:42;6.45;;;5.72;;
80621;SDS011;69980;51.914;7.526;2023-10-31T01:09:08;7.60;;;6.00;;
80621;SDS011;69980;51.914;7.526;2023-10-31T01:11:34;5.95;;;5.35;;
80621;SDS011;69980;51.914;7.526;2023-10-31T01:13:59;7.03;;;6.32;;
80621;SDS011;69980;51.914;7.526;2023-10-31T01:16:25;6.43;;;5.82;;
80621;SDS011;69980;51.914;7.526;2023-10-31T01:18:50;6.57;;;5.88;;
80621;SDS011;69980;51.914;7.526;2023-10-31T01:21:15;6.25;;;5.53;;
80621;SDS011;69980;51.914;7.526;2023-10-31T01:23:40;5.68;;;5.10;;
80621;SDS011;69980;51.914;7.526;2023-10-31T01:26:06;5.10;;;4.60;;
80621;SDS011;69980;51.914;7.526;2023-10-31T01:28:31;6.20;;;4.38;;
80621;SDS011;69980;51.914;7.526;2023-10-31T01:30:56;4.45;;;3.83;;
80621;SDS011;69980;51.914;7.526;2023-10-31T01:33:22;5.13;;;3.47;;
80621;SDS011;69980;51.914;7.526;2023-10-31T01:35:47;4.80;;;2.63;;
80621;SDS011;69980;51.914;7.526;2023-10-31T01:38:12;3.25;;;2.30;;
80621;SDS011;69980;51.914;7.526;2023-10-31T01:40:37;3.17;;;2.22;;
80621;SDS011;69980;51.914;7.526;2023-10-31T01:43:03;2.95;;;1.80;;
80621;SDS011;69980;51.914;7.526;2023-10-31T01:45:28;2.60;;;1.80;;
80621;SDS011;69980;51.914;7.526;2023-10-31T01:47:53;2.38;;;1.55;;
80621;SDS011;69980;51.914;7.526;2023-10-31T01:50:19;3.00;;;1.73;;
80621;SDS011;69980;51.914;7.526;2023-10-31T01:52:44;2.97;;;1.20;;
80621;SDS011;69980;51.914;7.526;2023-10-31T01:55:09;4.97;;;1.23;;
80621;SDS011;69980;51.914;7.526;2023-10-31T01:57:35;1.85;;;1.20;;
80621;SDS011;69980;51.914;7.526;2023-10-31T02:00:00;1.90;;;1.13;;
80621;SDS011;69980;51.914;7.526;2023-10-31T02:02:26;1.88;;;0.90;;
80621;SDS011;69980;51.914;7.526;2023-10-31T02:04:52;2.70;;;1.00;;
80621;SDS011;69980;51.914;7.526;2023-10-31T02:07:17;2.85;;;1.00;;
80621;SDS011;69980;51.914;7.526;2023-10-31T02:09:43;2.15;;;0.80;;
80621;SDS011;69980;51.914;7.526;2023-10-31T02:12:08;2.03;;;0.70;;
80621;SDS011;69980;51.914;7.526;2023-10-31T02:14:33;1.98;;;0.52;;
80621;SDS011;69980;51.914;7.526;2023-10-31T02:16:59;0.95;;;0.40;;
80621;SDS011;69980;51.914;7.526;2023-10-31T02:19:24;1.00;;;0.30;;
80621;SDS011;69980;51.914;7.526;2023-10-31T02:21:49;1.40;;;0.43;;
80621;SDS011;69980;51.914;7.526;2023-10-31T02:24:14;1.02;;;0.30;;
80621;SDS011;69980;51.914;7.526;2023-10-31T02:26:40;1.38;;;0.40;;
80621;SDS011;69980;51.914;7.526;2023-10-31T02:29:05;1.08;;;0.40;;
80621;SDS011;69980;51.914;7.526;2023-10-31T02:31:30;1.80;;;0.40;;
80621;SDS011;69980;51.914;7.526;2023-10-31T02:33:56;1.42;;;0.50;;
80621;SDS011;69980;51.914;7.526;2023-10-31T02:36:21;1.27;;;0.50;;
80621;SDS011;69980;51.914;7.526;2023-10-31T02:38:46;1.38;;;0.60;;
80621;SDS011;69980;51.914;7.526;2023-10-31T02:41:12;1.42;;;0.60;;
80621;SDS011;69980;51.914;7.526;2023-10-31T02:43:40;1.65;;;0.65;;
80621;SDS011;69980;51.914;7.526;2023-10-31T02:46:06;2.80;;;0.70;;
80621;SDS011;69980;51.914;7.526;2023-10-31T02:48:31;2.42;;;0.80;;
80621;SDS011;69980;51.914;7.526;2023-10-31T02:50:57;3.25;;;1.10;;
80621;SDS011;69980;51.914;7.526;2023-10-31T02:53:22;3.78;;;1.10;;
80621;SDS011;69980;51.914;7.526;2023-10-31T02:55:47;3.28;;;1.20;;
80621;SDS011;69980;51.914;7.526;2023-10-31T02:58:12;2.10;;;0.90;;
80621;SDS011;69980;51.914;7.526;2023-10-31T03:00:38;1.98;;;1.13;;
80621;SDS011;69980;51.914;7.526;2023-10-31T03:03:03;2.92;;;1.10;;
80621;SDS011;69980;51.914;7.526;2023-10-31T03:05:29;2.63;;;1.38;;
80621;SDS011;69980;51.914;7.526;2023-10-31T03:07:54;2.85;;;1.48;;
80621;SDS011;69980;51.914;7.526;2023-10-31T03:10:20;3.40;;;1.40;;
80621;SDS011;69980;51.914;7.526;2023-10-31T03:12:45;3.90;;;1.77;;
80621;SDS011;69980;51.914;7.526;2023-10-31T03:15:11;3.42;;;1.60;;
80621;SDS011;69980;51.914;7.526;2023-10-31T03:17:36;4.22;;;1.90;;
80621;SDS011;69980;51.914;7.526;2023-10-31T03:20:01;3.20;;;1.75;;
80621;SDS011;69980;51.914;7.526;2023-10-31T03:22:27;4.38;;;2.10;;
80621;SDS011;69980;51.914;7.526;2023-10-31T03:24:52;5.28;;;2.58;;
80621;SDS011;69980;51.914;7.526;2023-10-31T03:27:17;3.95;;;2.30;;
80621;SDS011;69980;51.914;7.526;2023-10-31T03:29:43;4.63;;;2.58;;
80621;SDS011;69980;51.914;7.526;2023-10-31T03:32:08;4.45;;;2.90;;
80621;SDS011;69980;51.914;7.526;2023-10-31T03:34:33;6.72;;;3.30;;
80621;SDS011;69980;51.914;7.526;2023-10-31T03:36:59;5.25;;;3.22;;
80621;SDS011;69980;51.914;7.526;2023-10-31T03:39:24;5.90;;;4.10;;
80621;SDS011;69980;51.914;7.526;2023-10-31T03:41:49;5.07;;;3.60;;
80621;SDS011;69980;51.914;7.526;2023-10-31T03:44:14;4.68;;;3.80;;
80621;SDS011;69980;51.914;7.526;2023-10-31T03:46:40;7.57;;;4.50;;
80621;SDS011;69980;51.914;7.526;2023-10-31T03:49:05;8.13;;;4.80;;
80621;SDS011;69980;51.914;7.526;2023-10-31T03:51:30;7.75;;;5.00;;
80621;SDS011;69980;51.914;7.526;2023-10-31T03:53:56;7.32;;;4.88;;
80621;SDS011;69980;51.914;7.526;2023-10-31T03:56:22;8.05;;;5.55;;
80621;SDS011;69980;51.914;7.526;2023-10-31T03:58:47;7.18;;;5.88;;
80621;SDS011;69980;51.914;7.526;2023-10-31T04:01:13;8.25;;;5.63;;
80621;SDS011;69980;51.914;7.526;2023-10-31T04:03:38;8.23;;;5.65;;
80621;SDS011;69980;51.914;7.526;2023-10-31T04:06:05;9.30;;;6.50;;
80621;SDS011;69980;51.914;7.526;2023-10-31T04:08:30;7.55;;;6.50;;
80621;SDS011;69980;51.914;7.526;2023-10-31T04:10:55;9.40;;;6.95;;
80621;SDS011;69980;51.914;7.526;2023-10-31T04:13:21;8.90;;;7.00;;
80621;SDS011;69980;51.914;7.526;2023-10-31T04:15:46;8.45;;;7.22;;
80621;SDS011;69980;51.914;7.526;2023-10-31T04:18:12;10.88;;;7.32;;
80621;SDS011;69980;51.914;7.526;2023-10-31T04:20:37;8.73;;;7.28;;
80621;SDS011;69980;51.914;7.526;2023-10-31T04:23:02;9.85;;;7.03;;
80621;SDS011;69980;51.914;7.526;2023-10-31T04:25:28;10.88;;;7.40;;
80621;SDS011;69980;51.914;7.526;2023-10-31T04:27:54;9.50;;;7.05;;
80621;SDS011;69980;51.914;7.526;2023-10-31T04:30:20;9.18;;;7.65;;
80621;SDS011;69980;51.914;7.526;2023-10-31T04:32:46;10.77;;;8.18;;
80621;SDS011;69980;51.914;7.526;2023-10-31T04:35:11;11.60;;;7.78;;
80621;SDS011;69980;51.914;7.526;2023-10-31T04:37:36;9.75;;;8.00;;
80621;SDS011;69980;51.914;7.526;2023-10-31T04:40:02;10.30;;;8.18;;
80621;SDS011;69980;51.914;7.526;2023-10-31T04:42:27;11.48;;;9.68;;
80621;SDS011;69980;51.914;7.526;2023-10-31T04:44:52;10.50;;;9.05;;
80621;SDS011;69980;51.914;7.526;2023-10-31T04:47:18;13.98;;;10.73;;
80621;SDS011;69980;51.914;7.526;2023-10-31T04:49:43;11.88;;;9.40;;
80621;SDS011;69980;51.914;7.526;2023-10-31T04:52:08;14.02;;;10.30;;
80621;SDS011;69980;51.914;7.526;2023-10-31T04:54:33;13.57;;;10.23;;
80621;SDS011;69980;51.914;7.526;2023-10-31T04:56:59;12.82;;;10.23;;
80621;SDS011;69980;51.914;7.526;2023-10-31T04:59:24;13.52;;;10.35;;
80621;SDS011;69980;51.914;7.526;2023-10-31T05:01:50;14.38;;;11.55;;
80621;SDS011;69980;51.914;7.526;2023-10-31T05:04:15;14.57;;;11.35;;
80621;SDS011;69980;51.914;7.526;2023-10-31T05:06:40;14.45;;;11.50;;
80621;SDS011;69980;51.914;7.526;2023-10-31T05:09:06;15.13;;;12.07;;
80621;SDS011;69980;51.914;7.526;2023-10-31T05:11:31;15.13;;;12.15;;
80621;SDS011;69980;51.914;7.526;2023-10-31T05:13:57;15.25;;;12.10;;
80621;SDS011;69980;51.914;7.526;2023-10-31T05:16:22;15.48;;;12.57;;
80621;SDS011;69980;51.914;7.526;2023-10-31T05:18:47;15.15;;;12.70;;
80621;SDS011;69980;51.914;7.526;2023-10-31T05:21:18;14.40;;;12.25;;
80621;SDS011;69980;51.914;7.526;2023-10-31T05:23:44;15.70;;;12.20;;
80621;SDS011;69980;51.914;7.526;2023-10-31T05:26:09;15.35;;;11.98;;
80621;SDS011;69980;51.914;7.526;2023-10-31T05:28:34;15.25;;;11.40;;
80621;SDS011;69980;51.914;7.526;2023-10-31T05:31:00;14.32;;;11.35;;
80621;SDS011;69980;51.914;7.526;2023-10-31T05:33:25;15.73;;;11.52;;
80621;SDS011;69980;51.914;7.526;2023-10-31T05:35:50;13.30;;;10.45;;
80621;SDS011;69980;51.914;7.526;2023-10-31T05:38:16;14.73;;;10.90;;
80621;SDS011;69980;51.914;7.526;2023-10-31T05:40:41;12.85;;;9.93;;
80621;SDS011;69980;51.914;7.526;2023-10-31T05:43:06;12.80;;;10.00;;
80621;SDS011;69980;51.914;7.526;2023-10-31T05:45:35;13.27;;;9.98;;
80621;SDS011;69980;51.914;7.526;2023-10-31T05:48:00;11.77;;;8.90;;
80621;SDS011;69980;51.914;7.526;2023-10-31T05:50:25;11.38;;;8.38;;
80621;SDS011;69980;51.914;7.526;2023-10-31T05:52:51;12.20;;;8.82;;
80621;SDS011;69980;51.914;7.526;2023-10-31T05:55:17;10.52;;;7.80;;
80621;SDS011;69980;51.914;7.526;2023-10-31T05:57:42;10.57;;;8.70;;
80621;SDS011;69980;51.914;7.526;2023-10-31T06:00:07;11.38;;;8.30;;
80621;SDS011;69980;51.914;7.526;2023-10-31T06:02:33;11.07;;;8.57;;
80621;SDS011;69980;51.914;7.526;2023-10-31T06:04:58;12.07;;;8.85;;
80621;SDS011;69980;51.914;7.526;2023-10-31T06:07:24;12.55;;;8.02;;
80621;SDS011;69980;51.914;7.526;2023-10-31T06:09:49;10.88;;;8.30;;
80621;SDS011;69980;51.914;7.526;2023-10-31T06:12:14;11.75;;;8.48;;
80621;SDS011;69980;51.914;7.526;2023-10-31T06:14:39;12.27;;;8.70;;
80621;SDS011;69980;51.914;7.526;2023-10-31T06:17:05;11.45;;;8.57;;
80621;SDS011;69980;51.914;7.526;2023-10-31T06:19:33;10.68;;;8.30;;
80621;SDS011;69980;51.914;7.526;2023-10-31T06:21:59;10.73;;;8.00;;
80621;SDS011;69980;51.914;7.526;2023-10-31T06:24:25;9.82;;;6.97;;
80621;SDS011;69980;51.914;7.526;2023-10-31T06:26:50;10.63;;;7.80;;
80621;SDS011;69980;51.914;7.526;2023-10-31T06:29:15;9.65;;;7.43;;
80621;SDS011;69980;51.914;7.526;2023-10-31T06:31:40;11.05;;;7.90;;
80621;SDS011;69980;51.914;7.526;2023-10-31T06:34:06;10.98;;;7.97;;
80621;SDS011;69980;51.914;7.526;2023-10-31T06:36:31;10.15;;;7.30;;
80621;SDS011;69980;51.914;7.526;2023-10-31T06:38:56;9.77;;;7.22;;
80621;SDS011;69980;51.914;7.526;2023-10-31T06:41:22;9.75;;;7.22;;
80621;SDS011;69980;51.914;7.526;2023-10-31T06:43:47;9.15;;;6.80;;
80621;SDS011;69980;51.914;7.526;2023-10-31T06:46:12;7.68;;;5.97;;
80621;SDS011;69980;51.914;7.526;2023-10-31T06:48:37;8.25;;;6.18;;
80621;SDS011;69980;51.914;7.526;2023-10-31T06:51:03;7.55;;;5.07;;
80621;SDS011;69980;51.914;7.526;2023-10-31T06:53:28;6.60;;;4.82;;
80621;SDS011;69980;51.914;7.526;2023-10-31T06:55:54;7.18;;;5.13;;
80621;SDS011;69980;51.914;7.526;2023-10-31T06:58:19;6.75;;;4.70;;
80621;SDS011;69980;51.914;7.526;2023-10-31T07:00:44;6.50;;;4.57;;
80621;SDS011;69980;51.914;7.526;2023-10-31T07:03:09;5.28;;;4.10;;
80621;SDS011;69980;51.914;7.526;2023-10-31T07:05:35;5.18;;;4.07;;
80621;SDS011;69980;51.914;7.526;2023-10-31T07:08:00;6.72;;;4.47;;
80621;SDS011;69980;51.914;7.526;2023-10-31T07:10:26;7.35;;;4.13;;
80621;SDS011;69980;51.914;7.526;2023-10-31T07:12:51;5.60;;;3.70;;
80621;SDS011;69980;51.914;7.526;2023-10-31T07:15:16;6.75;;;3.67;;
80621;SDS011;69980;51.914;7.526;2023-10-31T07:17:42;6.57;;;3.90;;
80621;SDS011;69980;51.914;7.526;2023-10-31T07:20:07;6.00;;;3.70;;
80621;SDS011;69980;51.914;7.526;2023-10-31T07:22:32;4.75;;;3.40;;
80621;SDS011;69980;51.914;7.526;2023-10-31T07:24:58;5.25;;;3.45;;
80621;SDS011;69980;51.914;7.526;2023-10-31T07:27:23;6.82;;;3.65;;
80621;SDS011;69980;51.914;7.526;2023-10-31T07:29:48;5.28;;;3.22;;
80621;SDS011;69980;51.914;7.526;2023-10-31T07:32:14;4.72;;;3.40;;
80621;SDS011;69980;51.914;7.526;2023-10-31T07:34:41;5.85;;;3.78;;
80621;SDS011;69980;51.914;7.526;2023-10-31T07:37:07;5.13;;;3.60;;
80621;SDS011;69980;51.914;7.526;2023-10-31T07:39:32;6.38;;;3.63;;
80621;SDS011;69980;51.914;7.526;2023-10-31T07:41:57;6.18;;;4.03;;
80621;SDS011;69980;51.914;7.526;2023-10-31T07:44:23;5.93;;;3.63;;
80621;SDS011;69980;51.914;7.526;2023-10-31T07:46:48;5.97;;;3.90;;
80621;SDS011;69980;51.914;7.526;2023-10-31T07:49:13;5.90;;;4.57;;
80621;SDS011;69980;51.914;7.526;2023-10-31T07:51:38;6.60;;;4.60;;
80621;SDS011;69980;51.914;7.526;2023-10-31T07:54:05;7.00;;;5.03;;
80621;SDS011;69980;51.914;7.526;2023-10-31T07:56:31;6.80;;;4.55;;
80621;SDS011;69980;51.914;7.526;2023-10-31T07:58:57;7.03;;;5.45;;
80621;SDS011;69980;51.914;7.526;2023-10-31T08:01:22;6.57;;;5.50;;
80621;SDS011;69980;51.914;7.526;2023-10-31T08:03:47;7.93;;;6.15;;
80621;SDS011;69980;51.914;7.526;2023-10-31T08:06:13;7.20;;;5.65;;
80621;SDS011;69980;51.914;7.526;2023-10-31T08:08:38;8.98;;;6.35;;
80621;SDS011;69980;51.914;7.526;2023-10-31T08:11:07;8.48;;;6.38;;
80621;SDS011;69980;51.914;7.526;2023-10-31T08:13:32;10.27;;;6.85;;
80621;SDS011;69980;51.914;7.526;2023-10-31T08:15:58;8.50;;;6.78;;
80621;SDS011;69980;51.914;7.526;2023-10-31T08:18:23;8.70;;;6.68;;
80621;SDS011;69980;51.914;7.526;2023-10-31T08:20:48;9.18;;;7.57;;
80621;SDS011;69980;51.914;7.526;2023-10-31T08:23:14;9.65;;;7.88;;
80621;SDS011;69980;51.914;7.526;2023-10-31T08:25:39;10.25;;;7.43;;
80621;SDS011;69980;51.914;7.526;2023-10-31T08:28:04;12.48;;;9.32;;
80621;SDS011;69980;51.914;7.526;2023-10-31T08:30:30;11.50;;;9.52;;
80621;SDS011;69980;51.914;7.526;2023-10-31T08:32:55;14.50;;;9.77;;
80621;SDS011;69980;51.914;7.526;2023-10-31T08:35:20;15.73;;;10.07;;
80621;SDS011;69980;51.914;7.526;2023-10-31T08:37:45;14.68;;;11.15;;
80621;SDS011;69980;51.914;7.526;2023-10-31T08:40:11;13.32;;;10.75;;
80621;SDS011;69980;51.914;7.526;2023-10-31T08:42:36;14.43;;;10.57;;
80621;SDS011;69980;51.914;7.526;2023-10-31T08:45:01;14.18;;;11.13;;
80621;SDS011;69980;51.914;7.526;2023-10-31T08:47:27;15.43;;;12.13;;
80621;SDS011;69980;51.914;7.526;2023-10-31T08:49:52;15.32;;;10.90;;
80621;SDS011;69980;51.914;7.526;2023-10-31T08:52:17;14.82;;;10.80;;
80621;SDS011;69980;51.914;7.526;2023-10-31T08:54:43;11.93;;;9.45;;
80621;SDS011;69980;51.914;7.526;2023-10-31T08:57:08;14.25;;;10.35;;
80621;SDS011;69980;51.914;7.526;2023-10-31T08:59:33;13.15;;;9.73;;
80621;SDS011;69980;51.914;7.526;2023-10-31T09:01:58;11.77;;;9.20;;
80621;SDS011;69980;51.914;7.526;2023-10-31T09:04:24;13.07;;;9.43;;
80621;SDS011;69980;51.914;7.526;2023-10-31T09:06:49;11.95;;;9.52;;
80621;SDS011;69980;51.914;7.526;2023-10-31T09:09:14;12.70;;;9.35;;
80621;SDS011;69980;51.914;7.526;2023-10-31T09:11:40;12.25;;;9.85;;
80621;SDS011;69980;51.914;7.526;2023-10-31T09:14:05;11.73;;;8.52;;
80621;SDS011;69980;51.914;7.526;2023-10-31T09:16:30;12.27;;;9.50;;
80621;SDS011;69980;51.914;7.526;2023-10-31T09:18:56;11.65;;;8.95;;
80621;SDS011;69980;51.914;7.526;2023-10-31T09:21:47;13.40;;;9.18;;
80621;SDS011;69980;51.914;7.526;2023-10-31T09:24:13;11.68;;;9.07;;
80621;SDS011;69980;51.914;7.526;2023-10-31T09:26:41;12.07;;;9.20;;
80621;SDS011;69980;51.914;7.526;2023-10-31T09:29:07;12.98;;;9.43;;
80621;SDS011;69980;51.914;7.526;2023-10-31T09:31:32;11.00;;;8.95;;
80621;SDS011;69980;51.914;7.526;2023-10-31T09:33:57;10.60;;;9.02;;
80621;SDS011;69980;51.914;7.526;2023-10-31T09:36:23;10.00;;;8.38;;
80621;SDS011;69980;51.914;7.526;2023-10-31T09:38:48;10.93;;;9.20;;
80621;SDS011;69980;51.914;7.526;2023-10-31T09:41:13;10.50;;;8.80;;
80621;SDS011;69980;51.914;7.526;2023-10-31T09:43:39;11.10;;;9.15;;
80621;SDS011;69980;51.914;7.526;2023-10-31T09:46:05;10.48;;;8.30;;
80621;SDS011;69980;51.914;7.526;2023-10-31T09:48:31;10.02;;;8.25;;
80621;SDS011;69980;51.914;7.526;2023-10-31T09:50:56;11.18;;;8.50;;
80621;SDS011;69980;51.914;7.526;2023-10-31T09:53:22;11.48;;;7.93;;
80621;SDS011;69980;51.914;7.526;2023-10-31T09:55:48;10.40;;;7.82;;
80621;SDS011;69980;51.914;7.526;2023-10-31T09:58:14;9.00;;;7.50;;
80621;SDS011;69980;51.914;7.526;2023-10-31T10:00:39;8.88;;;7.15;;
80621;SDS011;69980;51.914;7.526;2023-10-31T10:03:04;7.50;;;6.65;;
80621;SDS011;69980;51.914;7.526;2023-10-31T10:05:34;7.50;;;6.50;;
80621;SDS011;69980;51.914;7.526;2023-10-31T10:08:00;8.43;;;6.72;;
80621;SDS011;69980;51.914;7.526;2023-10-31T10:10:25;7.28;;;6.50;;
80621;SDS011;69980;51.914;7.526;2023-10-31T10:12:51;8.10;;;7.30;;
80621;SDS011;69980;51.914;7.526;2023-10-31T10:15:17;7.80;;;6.75;;
80621;SDS011;69980;51.914;7.526;2023-10-31T10:17:48;7.57;;;6.63;;
80621;SDS011;69980;51.914;7.526;2023-10-31T10:20:14;8.15;;;7.35;;
80621;SDS011;69980;51.914;7.526;2023-10-31T10:22:39;7.97;;;7.05;;
80621;SDS011;69980;51.914;7.526;2023-10-31T10:25:15;7.85;;;6.55;;
80621;SDS011;69980;51.914;7.526;2023-10-31T10:27:41;7.28;;;6.20;;
80621;SDS011;69980;51.914;7.526;2023-10-31T10:30:07;7.13;;;6.25;;
80621;SDS011;69980;51.914;7.526;2023-10-31T10:32:33;8.38;;;6.88;;
80621;SDS011;69980;51.914;7.526;2023-10-31T10:34:59;8.45;;;6.63;;
80621;SDS011;69980;51.914;7.526;2023-10-31T10:37:25;8.98;;;7.03;;
80621;SDS011;69980;51.914;7.526;2023-10-31T10:39:51;9.27;;;7.15;;
80621;SDS011;69980;51.914;7.526;2023-10-31T10:42:17;9.55;;;6.57;;
80621;SDS011;69980;51.914;7.526;2023-10-31T10:44:43;8.65;;;7.03;;
80621;SDS011;69980;51.914;7.526;2023-10-31T10:47:09;8.52;;;6.72;;
80621;SDS011;69980;51.914;7.526;2023-10-31T10:49:37;8.52;;;7.00;;
80621;SDS011;69980;51.914;7.526;2023-10-31T10:52:14;9.13;;;7.25;;
80621;SDS011;69980;51.914;7.526;2023-10-31T10:54:57;10.00;;;6.88;;
80621;SDS011;69980;51.914;7.526;2023-10-31T11:00:04;10.05;;;6.88;;
80621;SDS011;69980;51.914;7.526;2023-10-31T11:02:32;10.02;;;6.60;;
80621;SDS011;69980;51.914;7.526;2023-10-31T11:04:57;9.48;;;7.05;;
80621;SDS011;69980;51.914;7.526;2023-10-31T11:07:23;8.00;;;6.30;;
80621;SDS011;69980;51.914;7.526;2023-10-31T11:09:49;8.70;;;6.78;;
80621;SDS011;69980;51.914;7.526;2023-10-31T11:12:14;10.75;;;7.07;;
80621;SDS011;69980;51.914;7.526;2023-10-31T11:14:40;8.95;;;7.18;;
80621;SDS011;69980;51.914;7.526;2023-10-31T11:17:09;11.63;;;6.95;;
80621;SDS011;69980;51.914;7.526;2023-10-31T11:19:39;8.73;;;6.97;;
80621;SDS011;69980;51.914;7.526;2023-10-31T11:22:05;8.38;;;7.10;;
80621;SDS011;69980;51.914;7.526;2023-10-31T11:24:31;12.57;;;7.40;;
80621;SDS011;69980;51.914;7.526;2023-10-31T11:27:00;8.18;;;6.53;;
80621;SDS011;69980;51.914;7.526;2023-10-31T11:29:26;9.15;;;6.78;;
80621;SDS011;69980;51.914;7.526;2023-10-31T11:31:53;11.38;;;7.15;;
80621;SDS011;69980;51.914;7.526;2023-10-31T11:34:19;8.50;;;6.72;;
80621;SDS011;69980;51.914;7.526;2023-10-31T11:36:45;10.82;;;7.50;;
80621;SDS011;69980;51.914;7.526;2023-10-31T11:39:14;8.27;;;6.22;;
80621;SDS011;69980;51.914;7.526;2023-10-31T11:41:49;10.18;;;6.63;;
80621;SDS011;69980;51.914;7.526;2023-10-31T11:44:15;8.70;;;6.75;;
80621;SDS011;69980;51.914;7.526;2023-10-31T11:46:42;7.82;;;6.32;;
80621;SDS011;69980;51.914;7.526;2023-10-31T11:49:07;8.55;;;6.32;;
80621;SDS011;69980;51.914;7.526;2023-10-31T11:51:33;8.55;;;6.95;;
80621;SDS011;69980;51.914;7.526;2023-10-31T11:53:59;9.68;;;6.18;;
80621;SDS011;69980;51.914;7.526;2023-10-31T11:56:25;8.85;;;6.70;;
80621;SDS011;69980;51.914;7.526;2023-10-31T11:58:54;9.45;;;6.70;;
80621;SDS011;69980;51.914;7.526;2023-10-31T12:01:20;9.07;;;6.65;;
80621;SDS011;69980;51.914;7.526;2023-10-31T12:03:46;9.23;;;6.35;;
80621;SDS011;69980;51.914;7.526;2023-10-31T12:06:11;9.15;;;6.80;;
80621;SDS011;69980;51.914;7.526;2023-10-31T12:08:37;8.65;;;6.63;;
80621;SDS011;69980;51.914;7.526;2023-10-31T12:11:07;11.52;;;7.32;;
80621;SDS011;69980;51.914;7.526;2023-10-31T12:13:34;10.13;;;7.10;;
80621;SDS011;69980;51.914;7.526;2023-10-31T12:16:00;9.07;;;7.03;;
80621;SDS011;69980;51.914;7.526;2023-10-31T12:18:26;11.55;;;7.30;;
80621;SDS011;69980;51.914;7.526;2023-10-31T12:20:52;8.90;;;7.35;;
80621;SDS011;69980;51.914;7.526;2023-10-31T12:23:17;9.60;;;6.95;;
80621;SDS011;69980;51.914;7.526;2023-10-31T12:25:50;10.77;;;7.25;;
80621;SDS011;69980;51.914;7.526;2023-10-31T12:28:16;12.15;;;8.02;;
80621;SDS011;69980;51.914;7.526;2023-10-31T12:30:48;13.07;;;8.05;;
80621;SDS011;69980;51.914;7.526;2023-10-31T12:33:15;10.57;;;8.43;;
80621;SDS011;69980;51.914;7.526;2023-10-31T12:35:41;10.52;;;8.23;;
80621;SDS011;69980;51.914;7.526;2023-10-31T12:38:09;11.63;;;9.18;;
80621;SDS011;69980;51.914;7.526;2023-10-31T12:40:35;13.57;;;9.15;;
80621;SDS011;69980;51.914;7.526;2023-10-31T12:43:02;13.85;;;9.40;;
80621;SDS011;69980;51.914;7.526;2023-10-31T12:45:27;10.65;;;8.73;;
80621;SDS011;69980;51.914;7.526;2023-10-31T12:48:09;10.60;;;8.65;;
80621;SDS011;69980;51.914;7.526;2023-10-31T12:50:36;12.80;;;8.73;;
80621;SDS011;69980;51.914;7.526;2023-10-31T12:53:02;12.68;;;9.45;;
80621;SDS011;69980;51.914;7.526;2023-10-31T12:55:27;11.02;;;8.82;;
80621;SDS011;69980;51.914;7.526;2023-10-31T12:57:53;11.60;;;8.43;;
80621;SDS011;69980;51.914;7.526;2023-10-31T13:00:19;10.68;;;8.20;;
80621;SDS011;69980;51.914;7.526;2023-10-31T13:02:44;13.02;;;8.00;;
80621;SDS011;69980;51.914;7.526;2023-10-31T13:05:10;9.73;;;8.07;;
80621;SDS011;69980;51.914;7.526;2023-10-31T13:07:40;11.25;;;7.60;;
80621;SDS011;69980;51.914;7.526;2023-10-31T13:10:06;11.82;;;7.60;;
80621;SDS011;69980;51.914;7.526;2023-10-31T13:12:32;10.90;;;6.82;;
80621;SDS011;69980;51.914;7.526;2023-10-31T13:14:57;10.40;;;7.03;;
80621;SDS011;69980;51.914;7.526;2023-10-31T13:17:23;11.93;;;6.85;;
80621;SDS011;69980;51.914;7.526;2023-10-31T13:19:48;9.25;;;6.88;;
80621;SDS011;69980;51.914;7.526;2023-10-31T13:22:13;10.25;;;6.47;;
80621;SDS011;69980;51.914;7.526;2023-10-31T13:24:44;11.02;;;5.93;;
80621;SDS011;69980;51.914;7.526;2023-10-31T13:27:09;9.52;;;6.05;;
80621;SDS011;69980;51.914;7.526;2023-10-31T13:29:34;9.23;;;5.47;;
80621;SDS011;69980;51.914;7.526;2023-10-31T13:32:00;7.95;;;5.75;;
80621;SDS011;69980;51.914;7.526;2023-10-31T13:34:25;8.82;;;5.40;;
80621;SDS011;69980;51.914;7.526;2023-10-31T13:36:50;10.02;;;5.10;;
80621;SDS011;69980;51.914;7.526;2023-10-31T13:39:16;11.15;;;5.45;;
80621;SDS011;69980;51.914;7.526;2023-10-31T13:41:41;9.98;;;5.38;;
80621;SDS011;69980;51.914;7.526;2023-10-31T13:44:06;12.27;;;5.47;;
80621;SDS011;69980;51.914;7.526;2023-10-31T13:46:32;7.45;;;5.30;;
80621;SDS011;69980;51.914;7.526;2023-10-31T13:48:57;7.95;;;5.43;;
80621;SDS011;69980;51.914;7.526;2023-10-31T13:51:22;8.00;;;4.90;;
80621;SDS011;69980;51.914;7.526;2023-10-31T13:53:48;7.82;;;4.63;;
80621;SDS011;69980;51.914;7.526;2023-10-31T13:56:13;8.38;;;4.60;;
80621;SDS011;69980;51.914;7.526;2023-10-31T13:58:38;7.88;;;4.18;;
80621;SDS011;69980;51.914;7.526;2023-10-31T14:01:04;8.35;;;4.63;;
80621;SDS011;69980;51.914;7.526;2023-10-31T14:03:32;9.18;;;4.75;;
80621;SDS011;69980;51.914;7.526;2023-10-31T14:06:03;8.57;;;4.32;;
80621;SDS011;69980;51.914;7.526;2023-10-31T14:08:34;9.18;;;4.20;;
80621;SDS011;69980;51.914;7.526;2023-10-31T14:10:59;7.28;;;4.30;;
80621;SDS011;69980;51.914;7.526;2023-10-31T14:13:24;8.23;;;4.50;;
80621;SDS011;69980;51.914;7.526;2023-10-31T14:15:50;7.78;;;4.25;;
80621;SDS011;69980;51.914;7.526;2023-10-31T14:18:15;8.18;;;4.28;;
80621;SDS011;69980;51.914;7.526;2023-10-31T14:20:40;7.53;;;3.90;;
80621;SDS011;69980;51.914;7.526;2023-10-31T14:23:06;7.18;;;4.20;;
80621;SDS011;69980;51.914;7.526;2023-10-31T14:25:31;7.40;;;3.70;;
80621;SDS011;69980;51.914;7.526;2023-10-31T14:27:56;10.07;;;4.22;;
80621;SDS011;69980;51.914;7.526;2023-10-31T14:30:22;8.88;;;3.88;;
80621;SDS011;69980;51.914;7.526;2023-10-31T14:32:47;6.07;;;3.88;;
80621;SDS011;69980;51.914;7.526;2023-10-31T14:35:13;10.25;;;3.85;;